createdAt,value
2022-10-01T00:02:28.315Z,8.98
2022-10-01T00:05:31.394Z,8.50
2022-10-01T00:08:34.297Z,7.72
2022-10-01T00:11:38.245Z,4.10
2022-10-01T00:14:40.774Z,4.13
2022-10-01T00:17:43.974Z,4.12
2022-10-01T00:20:47.749Z,3.50
2022-10-01T00:23:59.733Z,2.90
2022-10-01T00:27:02.299Z,2.40
2022-10-01T00:30:06.700Z,2.30
2022-10-01T00:33:11.793Z,2.55
2022-10-01T00:36:14.943Z,2.20
2022-10-01T00:39:18.515Z,2.50
2022-10-01T00:42:29.372Z,2.40
2022-10-01T00:45:32.234Z,2.83
2022-10-01T00:48:44.667Z,3.28
2022-10-01T00:51:51.105Z,3.05
2022-10-01T00:55:12.760Z,3.10
2022-10-01T00:58:15.950Z,3.25
2022-10-01T01:01:19.206Z,2.80
2022-10-01T01:04:21.855Z,2.70
2022-10-01T01:07:24.989Z,3.20
2022-10-01T01:11:09.304Z,2.80
2022-10-01T01:14:34.085Z,3.03
2022-10-01T01:17:44.537Z,2.70
2022-10-01T01:21:08.728Z,3.53
2022-10-01T01:24:45.119Z,2.92
2022-10-01T01:27:47.954Z,2.85
2022-10-01T01:30:56.139Z,2.65
2022-10-01T01:34:00.947Z,2.60
2022-10-01T01:37:15.745Z,2.50
2022-10-01T01:40:21.190Z,2.70
2022-10-01T01:43:40.889Z,2.62
2022-10-01T01:46:49.600Z,2.92
2022-10-01T01:49:53.440Z,2.70
2022-10-01T01:52:56.417Z,2.75
2022-10-01T01:56:00.604Z,3.12
2022-10-01T01:59:04.008Z,3.47
2022-10-01T02:02:08.893Z,2.90
2022-10-01T02:05:18.286Z,2.80
2022-10-01T02:08:31.817Z,3.35
2022-10-01T02:11:45.813Z,3.08
2022-10-01T02:15:20.521Z,3.12
2022-10-01T02:18:39.939Z,3.08
2022-10-01T02:21:56.068Z,3.40
2022-10-01T02:25:02.127Z,3.00
2022-10-01T02:28:11.350Z,3.12
2022-10-01T02:31:16.072Z,3.40
2022-10-01T02:34:21.032Z,2.97
2022-10-01T02:37:26.778Z,3.07
2022-10-01T02:40:33.595Z,3.67
2022-10-01T02:43:43.246Z,3.28
2022-10-01T02:46:52.574Z,3.50
2022-10-01T02:49:56.131Z,3.35
2022-10-01T02:53:13.819Z,3.77
2022-10-01T02:56:36.904Z,3.80
2022-10-01T02:59:39.525Z,4.22
2022-10-01T03:02:42.829Z,4.00
2022-10-01T03:05:45.603Z,4.32
2022-10-01T03:08:48.488Z,5.20
2022-10-01T03:11:51.501Z,4.95
2022-10-01T03:14:56.502Z,4.43
2022-10-01T03:17:59.165Z,5.70
2022-10-01T03:21:02.001Z,4.80
2022-10-01T03:24:04.581Z,4.60
2022-10-01T03:27:07.640Z,4.50
2022-10-01T03:30:11.172Z,4.60
2022-10-01T03:33:14.119Z,4.80
2022-10-01T03:36:18.109Z,5.10
2022-10-01T03:39:21.073Z,4.80
2022-10-01T03:42:23.644Z,4.85
2022-10-01T03:45:26.731Z,5.15
2022-10-01T03:48:30.195Z,5.37
2022-10-01T03:51:34.738Z,5.30
2022-10-01T03:54:39.098Z,4.67
2022-10-01T03:57:41.908Z,5.35
2022-10-01T04:00:49.833Z,5.90
2022-10-01T04:03:55.012Z,6.35
2022-10-01T04:06:57.638Z,6.37
2022-10-01T04:10:00.614Z,6.10
2022-10-01T04:13:03.293Z,6.20
2022-10-01T04:16:07.261Z,6.25
2022-10-01T04:19:09.835Z,6.80
2022-10-01T04:22:12.802Z,6.55
2022-10-01T04:25:15.636Z,6.63
2022-10-01T04:28:18.843Z,6.10
2022-10-01T04:31:24.618Z,6.70
2022-10-01T04:34:47.647Z,6.60
2022-10-01T04:37:58.615Z,6.22
2022-10-01T04:41:01.558Z,6.73
2022-10-01T04:44:04.428Z,6.80
2022-10-01T04:47:08.797Z,6.50
2022-10-01T04:50:11.725Z,7.00
2022-10-01T04:53:15.975Z,7.25
2022-10-01T04:56:18.759Z,6.87
2022-10-01T04:59:21.898Z,7.50
2022-10-01T05:02:24.624Z,7.70
2022-10-01T05:05:29.936Z,8.25
2022-10-01T05:08:32.514Z,8.02
2022-10-01T05:11:37.835Z,8.60
2022-10-01T05:14:40.758Z,7.40
2022-10-01T05:17:43.851Z,7.45
2022-10-01T05:20:46.977Z,7.45
2022-10-01T05:23:49.909Z,7.32
2022-10-01T05:26:56.402Z,7.70
2022-10-01T05:29:59.372Z,8.30
2022-10-01T05:33:03.706Z,7.93
2022-10-01T05:36:07.121Z,8.23
2022-10-01T05:39:09.843Z,7.90
2022-10-01T05:42:14.161Z,7.57
2022-10-01T05:45:20.261Z,8.90
2022-10-01T05:48:23.302Z,10.85
2022-10-01T05:51:26.266Z,11.45
2022-10-01T05:54:29.694Z,11.55
2022-10-01T05:57:32.400Z,11.47
2022-10-01T06:00:36.066Z,11.00
2022-10-01T06:03:39.150Z,11.00
2022-10-01T06:06:42.235Z,10.88
2022-10-01T06:09:45.455Z,9.07
2022-10-01T06:12:48.775Z,8.87
2022-10-01T06:15:53.219Z,8.70
2022-10-01T06:18:57.802Z,9.07
2022-10-01T06:22:00.803Z,7.40
2022-10-01T06:25:03.558Z,9.02
2022-10-01T06:28:08.800Z,9.87
2022-10-01T06:31:11.859Z,9.55
2022-10-01T06:34:14.785Z,10.40
2022-10-01T06:37:17.780Z,14.50
2022-10-01T06:40:20.740Z,10.98
2022-10-01T06:43:25.514Z,10.90
2022-10-01T06:46:29.112Z,9.88
2022-10-01T06:49:31.731Z,10.90
2022-10-01T06:52:55.118Z,9.95
2022-10-01T06:55:58.099Z,11.93
2022-10-01T06:59:01.056Z,12.73
2022-10-01T07:02:05.045Z,14.77
2022-10-01T07:05:08.803Z,18.08
2022-10-01T07:08:12.179Z,17.27
2022-10-01T07:11:16.567Z,14.40
2022-10-01T07:14:20.669Z,12.63
2022-10-01T07:17:23.675Z,13.70
2022-10-01T07:20:26.279Z,18.77
2022-10-01T07:23:29.291Z,14.82
2022-10-01T07:26:33.274Z,14.68
2022-10-01T07:29:36.194Z,16.37
2022-10-01T07:32:39.799Z,13.55
2022-10-01T07:35:47.993Z,14.77
2022-10-01T07:38:51.453Z,14.52
2022-10-01T07:41:57.231Z,15.60
2022-10-01T07:44:59.907Z,15.97
2022-10-01T07:48:05.721Z,16.23
2022-10-01T07:51:08.418Z,16.00
2022-10-01T07:54:11.988Z,40.28
2022-10-01T07:57:15.684Z,13.65
2022-10-01T08:00:20.546Z,28.23
2022-10-01T08:03:23.835Z,12.40
2022-10-01T08:06:26.586Z,14.07
2022-10-01T08:09:31.863Z,12.88
2022-10-01T08:12:34.553Z,13.02
2022-10-01T08:15:37.452Z,13.87
2022-10-01T08:18:40.915Z,12.68
2022-10-01T08:21:43.827Z,13.80
2022-10-01T08:24:46.516Z,10.60
2022-10-01T08:27:49.419Z,10.70
2022-10-01T08:30:52.017Z,11.10
2022-10-01T08:33:55.922Z,11.55
2022-10-01T08:36:58.474Z,9.95
2022-10-01T08:40:01.586Z,10.75
2022-10-01T08:43:07.668Z,9.55
2022-10-01T08:46:15.120Z,9.83
2022-10-01T08:49:23.964Z,9.10
2022-10-01T08:52:32.422Z,9.50
2022-10-01T08:55:37.585Z,9.70
2022-10-01T08:58:45.505Z,8.85
2022-10-01T09:01:49.357Z,10.67
2022-10-01T09:05:01.773Z,11.00
2022-10-01T09:08:23.721Z,11.90
2022-10-01T09:11:49.219Z,13.15
2022-10-01T09:15:20.758Z,14.85
2022-10-01T09:18:29.488Z,14.00
2022-10-01T09:22:03.748Z,13.30
2022-10-01T09:25:09.863Z,12.13
2022-10-01T09:28:23.893Z,11.00
2022-10-01T09:31:48.792Z,12.68
2022-10-01T09:34:53.666Z,12.10
2022-10-01T09:37:57.735Z,12.07
2022-10-01T09:41:00.922Z,12.57
2022-10-01T09:44:04.584Z,13.10
2022-10-01T09:47:20.808Z,12.32
2022-10-01T09:50:40.198Z,13.10
2022-10-01T09:54:05.183Z,13.85
2022-10-01T09:57:13.689Z,14.15
2022-10-01T10:00:19.686Z,13.68
2022-10-01T10:03:30.575Z,14.13
2022-10-01T10:06:33.821Z,14.77
2022-10-01T10:09:37.764Z,15.13
2022-10-01T10:12:43.519Z,14.57
2022-10-01T10:16:00.388Z,14.35
2022-10-01T10:19:22.596Z,15.02
2022-10-01T10:22:27.570Z,14.00
2022-10-01T10:25:30.157Z,13.30
2022-10-01T10:28:44.319Z,13.25
2022-10-01T10:31:48.266Z,13.18
2022-10-01T10:34:53.546Z,12.73
2022-10-01T10:37:59.990Z,13.17
2022-10-01T10:41:04.077Z,13.35
2022-10-01T10:44:08.583Z,12.45
2022-10-01T10:47:15.031Z,12.37
2022-10-01T10:50:38.402Z,11.38
2022-10-01T10:53:46.185Z,9.63
2022-10-01T10:57:15.936Z,9.50
2022-10-01T11:00:24.616Z,9.73
2022-10-01T11:03:31.584Z,9.57
2022-10-01T11:06:34.717Z,8.35
2022-10-01T11:09:53.245Z,8.77
2022-10-01T11:13:34.580Z,8.32
2022-10-01T11:17:05.992Z,8.70
2022-10-01T11:20:20.872Z,8.38
2022-10-01T11:24:14.891Z,10.02
2022-10-01T11:27:43.297Z,9.20
2022-10-01T11:31:26.408Z,11.02
2022-10-01T11:34:55.783Z,13.38
2022-10-01T11:38:32.869Z,10.70
2022-10-01T11:41:35.835Z,10.57
2022-10-01T11:45:01.673Z,8.77
2022-10-01T11:48:15.617Z,9.15
2022-10-01T11:51:29.960Z,8.45
2022-10-01T11:54:36.341Z,7.90
2022-10-01T11:57:58.770Z,8.90
2022-10-01T12:01:23.955Z,7.60
2022-10-01T12:04:42.150Z,7.97
2022-10-01T12:07:50.584Z,8.55
2022-10-01T12:11:09.243Z,8.00
2022-10-01T12:14:19.111Z,8.93
2022-10-01T12:17:37.554Z,8.83
2022-10-01T12:20:44.836Z,9.77
2022-10-01T12:24:02.928Z,9.30
2022-10-01T12:27:37.208Z,9.55
2022-10-01T12:30:50.181Z,9.60
2022-10-01T12:34:24.499Z,8.63
2022-10-01T12:37:39.669Z,8.18
2022-10-01T12:41:10.539Z,11.27
2022-10-01T12:44:28.002Z,9.80
2022-10-01T12:47:53.151Z,9.52
2022-10-01T12:51:26.680Z,8.73
2022-10-01T12:54:36.389Z,7.65
2022-10-01T12:57:55.687Z,7.85
2022-10-01T13:01:20.607Z,7.93
2022-10-01T13:04:51.183Z,6.55
2022-10-01T13:08:09.421Z,5.90
2022-10-01T13:11:38.066Z,6.00
2022-10-01T13:14:44.611Z,6.65
2022-10-01T13:17:55.821Z,6.47
2022-10-01T13:21:17.079Z,5.28
2022-10-01T13:24:29.503Z,4.87
2022-10-01T13:27:47.546Z,4.82
2022-10-01T13:30:53.341Z,5.07
2022-10-01T13:33:57.847Z,5.62
2022-10-01T13:37:29.904Z,6.40
2022-10-01T13:40:35.647Z,6.07
2022-10-01T13:43:38.507Z,6.55
2022-10-01T13:47:13.459Z,7.07
2022-10-01T13:50:24.481Z,7.47
2022-10-01T13:53:28.441Z,8.95
2022-10-01T13:56:36.252Z,7.20
2022-10-01T13:59:39.187Z,6.90
2022-10-01T14:02:45.598Z,6.82
2022-10-01T14:05:54.995Z,6.80
2022-10-01T14:09:05.811Z,6.60
2022-10-01T14:12:31.877Z,6.83
2022-10-01T14:16:00.099Z,7.15
2022-10-01T14:19:04.646Z,7.72
2022-10-01T14:22:29.201Z,8.32
2022-10-01T14:26:01.616Z,8.80
2022-10-01T14:29:17.075Z,8.53
2022-10-01T14:32:44.373Z,9.30
2022-10-01T14:35:55.754Z,9.07
2022-10-01T14:39:26.335Z,8.55
2022-10-01T14:42:29.791Z,8.45
2022-10-01T14:45:32.683Z,8.67
2022-10-01T14:48:38.051Z,8.55
2022-10-01T14:51:53.665Z,7.40
2022-10-01T14:55:01.592Z,7.47
2022-10-01T14:58:05.852Z,6.30
2022-10-01T15:01:21.781Z,6.60
2022-10-01T15:04:26.426Z,7.50
2022-10-01T15:07:35.230Z,7.47
2022-10-01T15:10:41.832Z,7.70
2022-10-01T15:13:46.572Z,7.95
2022-10-01T15:16:50.285Z,8.37
2022-10-01T15:19:57.948Z,9.43
2022-10-01T15:23:01.853Z,10.02
2022-10-01T15:26:11.542Z,10.52
2022-10-01T15:29:16.769Z,10.63
2022-10-01T15:32:23.335Z,10.30
2022-10-01T15:35:26.594Z,9.90
2022-10-01T15:38:31.994Z,9.55
2022-10-01T15:41:35.051Z,10.57
2022-10-01T15:44:42.932Z,11.00
2022-10-01T15:47:57.067Z,9.50
2022-10-01T15:51:03.700Z,9.35
2022-10-01T15:54:09.054Z,9.57
2022-10-01T15:57:25.932Z,9.65
2022-10-01T16:00:47.784Z,9.48
2022-10-01T16:03:56.360Z,9.37
2022-10-01T16:06:59.014Z,10.02
2022-10-01T16:10:16.836Z,11.40
2022-10-01T16:13:43.124Z,10.60
2022-10-01T16:16:46.205Z,12.30
2022-10-01T16:19:50.092Z,11.50
2022-10-01T16:23:31.416Z,11.82
2022-10-01T16:26:37.291Z,13.57
2022-10-01T16:29:40.792Z,14.45
2022-10-01T16:32:43.346Z,15.07
2022-10-01T16:35:48.537Z,14.30
2022-10-01T16:38:51.786Z,15.35
2022-10-01T16:42:19.205Z,15.27
2022-10-01T16:45:25.301Z,15.77
2022-10-01T16:48:28.472Z,14.55
2022-10-01T16:51:32.645Z,14.40
2022-10-01T16:54:36.272Z,12.85
2022-10-01T16:57:39.162Z,12.55
2022-10-01T17:00:42.114Z,12.40
2022-10-01T17:03:44.684Z,11.75
2022-10-01T17:06:48.400Z,10.80
2022-10-01T17:09:51.006Z,11.57
2022-10-01T17:12:54.954Z,11.95
2022-10-01T17:15:57.632Z,12.30
2022-10-01T17:19:01.773Z,12.50
2022-10-01T17:22:04.351Z,15.30
2022-10-01T17:25:07.878Z,16.45
2022-10-01T17:28:21.374Z,19.20
2022-10-01T17:31:24.289Z,16.98
2022-10-01T17:34:26.911Z,13.35
2022-10-01T17:37:29.819Z,11.00
2022-10-01T17:40:32.741Z,10.98
2022-10-01T17:43:39.169Z,13.57
2022-10-01T17:46:41.870Z,12.27
2022-10-01T17:49:44.795Z,12.13
2022-10-01T17:52:48.082Z,11.73
2022-10-01T17:55:51.061Z,11.82
2022-10-01T17:58:54.715Z,15.25
2022-10-01T18:01:58.066Z,15.65
2022-10-01T18:05:04.184Z,17.80
2022-10-01T18:08:06.965Z,18.87
2022-10-01T18:11:12.103Z,15.98
2022-10-01T18:14:15.315Z,14.48
2022-10-01T18:17:18.370Z,15.77
2022-10-01T18:20:21.997Z,20.03
2022-10-01T18:23:24.923Z,21.90
2022-10-01T18:26:27.630Z,20.02
2022-10-01T18:29:30.537Z,18.92
2022-10-01T18:32:40.438Z,20.12
2022-10-01T18:35:44.501Z,21.37
2022-10-01T18:38:50.407Z,20.80
2022-10-01T18:41:54.819Z,19.80
2022-10-01T18:44:59.871Z,21.27
2022-10-01T18:48:18.054Z,20.05
2022-10-01T18:51:38.043Z,22.03
2022-10-01T18:54:50.156Z,23.83
2022-10-01T18:57:55.743Z,21.65
2022-10-01T19:01:32.021Z,23.02
2022-10-01T19:05:01.713Z,21.83
2022-10-01T19:08:53.806Z,21.47
2022-10-01T19:12:35.657Z,21.13
2022-10-01T19:16:16.148Z,21.48
2022-10-01T19:19:48.719Z,20.90
2022-10-01T19:23:23.620Z,19.15
2022-10-01T19:26:36.360Z,19.30
2022-10-01T19:30:07.091Z,17.20
2022-10-01T19:33:11.976Z,17.27
2022-10-01T19:36:34.556Z,17.33
2022-10-01T19:39:39.503Z,15.82
2022-10-01T19:42:49.754Z,15.67
2022-10-01T19:45:59.451Z,14.43
2022-10-01T19:49:02.608Z,13.05
2022-10-01T19:52:18.455Z,13.80
2022-10-01T19:55:25.076Z,11.68
2022-10-01T19:58:30.733Z,10.47
2022-10-01T20:01:51.779Z,9.27
2022-10-01T20:05:05.472Z,7.60
2022-10-01T20:08:29.069Z,6.93
2022-10-01T20:11:50.272Z,5.95
2022-10-01T20:15:34.643Z,6.10
2022-10-01T20:18:40.139Z,6.13
2022-10-01T20:22:14.354Z,6.10
2022-10-01T20:25:25.973Z,6.05
2022-10-01T20:28:41.333Z,7.28
2022-10-01T20:31:52.842Z,6.87
2022-10-01T20:35:24.758Z,7.20
2022-10-01T20:38:39.750Z,6.65
2022-10-01T20:41:50.882Z,7.60
2022-10-01T20:44:54.423Z,6.75
2022-10-01T20:48:02.942Z,6.50
2022-10-01T20:51:12.810Z,7.30
2022-10-01T20:54:23.218Z,6.10
2022-10-01T20:57:39.810Z,6.07
2022-10-01T21:00:45.944Z,5.50
2022-10-01T21:03:57.364Z,4.40
2022-10-01T21:07:27.965Z,4.57
2022-10-01T21:10:40.069Z,5.15
2022-10-01T21:13:56.810Z,4.60
2022-10-01T21:17:11.516Z,4.75
2022-10-01T21:20:17.098Z,4.73
2022-10-01T21:23:43.292Z,3.77
2022-10-01T21:27:22.977Z,3.92
2022-10-01T21:30:35.889Z,3.53
2022-10-01T21:33:54.094Z,3.67
2022-10-01T21:37:21.873Z,3.87
2022-10-01T21:40:52.022Z,3.17
2022-10-01T21:44:08.863Z,3.45
2022-10-01T21:47:42.759Z,3.97
2022-10-01T21:51:00.282Z,3.65
2022-10-01T21:54:18.281Z,3.60
2022-10-01T21:57:41.083Z,3.90
2022-10-01T22:00:53.270Z,4.10
2022-10-01T22:04:21.153Z,4.15
2022-10-01T22:07:37.164Z,4.03
2022-10-01T22:10:47.275Z,4.60
2022-10-01T22:13:54.054Z,4.20
2022-10-01T22:17:03.592Z,3.85
2022-10-01T22:20:08.134Z,3.92
2022-10-01T22:23:14.926Z,3.75
2022-10-01T22:26:21.769Z,3.70
2022-10-01T22:29:29.562Z,3.20
2022-10-01T22:32:40.425Z,3.03
2022-10-01T22:35:54.244Z,2.85
2022-10-01T22:39:04.915Z,2.58
2022-10-01T22:42:15.455Z,2.70
2022-10-01T22:45:18.454Z,2.80
2022-10-01T22:48:30.431Z,2.62
2022-10-01T22:51:38.719Z,2.25
2022-10-01T22:55:04.488Z,2.30
2022-10-01T22:58:24.874Z,2.00
2022-10-01T23:01:46.615Z,2.40
2022-10-01T23:05:06.542Z,2.25
2022-10-01T23:08:37.119Z,2.00
2022-10-01T23:11:55.205Z,2.30
2022-10-01T23:15:07.808Z,2.30
2022-10-01T23:18:40.520Z,2.00
2022-10-01T23:21:59.992Z,2.12
2022-10-01T23:25:35.541Z,2.33
2022-10-01T23:28:50.612Z,2.33
2022-10-01T23:32:22.875Z,2.10
2022-10-01T23:35:39.111Z,2.30
2022-10-01T23:39:03.172Z,2.10
2022-10-01T23:42:17.322Z,2.10
2022-10-01T23:45:36.253Z,2.20
2022-10-01T23:48:48.491Z,2.33
2022-10-01T23:52:29.323Z,2.60
2022-10-01T23:56:14.253Z,2.70
2022-10-01T23:59:37.622Z,2.40
